Time;durP1;ratioP1;P1;durP2;ratioP2;P2;SDS_P1;SDS_P2;PMS_P1;PMS_P2;Temp;Humidity;BMP_temperature;BMP_pressure;BME280_temperature;BME280_humidity;BME280_pressure;Samples;Min_cycle;Max_cycle;Signal;HPM_P1;HPM_P2
2022/03/05 00:00:51;;;;;;;27.17;11.60;;;;;;;;;;5074626;28;20036;-80
2022/03/05 00:03:17;;;;;;;26.35;11.70;;;;;;;;;;5073152;28;20044;-80
2022/03/05 00:05:43;;;;;;;25.25;11.75;;;;;;;;;;5074632;28;20024;-80
2022/03/05 00:08:09;;;;;;;31.27;12.07;;;;;;;;;;5074758;28;20022;-80
2022/03/05 00:10:36;;;;;;;25.85;12.32;;;;;;;;;;5074365;28;20032;-80
2022/03/05 00:13:02;;;;;;;27.98;11.10;;;;;;;;;;5074483;28;20504;-80
2022/03/05 00:15:28;;;;;;;28.02;12.18;;;;;;;;;;5074486;28;20032;-80
2022/03/05 00:17:54;;;;;;;26.13;11.27;;;;;;;;;;5074287;28;20085;-80
2022/03/05 00:20:21;;;;;;;26.52;11.90;;;;;;;;;;5074386;28;20054;-80
2022/03/05 00:22:47;;;;;;;31.77;11.98;;;;;;;;;;5086763;28;20411;-80
2022/03/05 00:25:13;;;;;;;30.98;12.63;;;;;;;;;;5094252;28;20058;-80
2022/03/05 00:27:40;;;;;;;31.05;12.57;;;;;;;;;;5094431;28;20054;-80
2022/03/05 00:30:07;;;;;;;28.25;12.40;;;;;;;;;;5094115;28;20050;-80
2022/03/05 00:32:33;;;;;;;28.27;11.85;;;;;;;;;;5093576;28;20095;-80
2022/03/05 00:34:59;;;;;;;27.92;11.48;;;;;;;;;;5094090;28;20021;-80
2022/03/05 00:37:25;;;;;;;29.38;11.13;;;;;;;;;;5094373;28;20073;-80
2022/03/05 00:39:51;;;;;;;26.55;12.20;;;;;;;;;;5094394;28;20026;-80
2022/03/05 00:42:17;;;;;;;28.23;12.80;;;;;;;;;;5094108;28;20063;-80
2022/03/05 00:44:43;;;;;;;27.55;11.52;;;;;;;;;;5094059;28;20469;-81
2022/03/05 00:47:09;;;;;;;31.42;12.00;;;;;;;;;;5085113;28;20045;-80
2022/03/05 00:49:35;;;;;;;27.75;11.65;;;;;;;;;;5073574;28;20039;-80
2022/03/05 00:52:01;;;;;;;31.88;13.13;;;;;;;;;;5073555;28;20100;-80
2022/03/05 00:54:27;;;;;;;31.17;12.38;;;;;;;;;;5072337;28;20465;-80
2022/03/05 00:56:53;;;;;;;28.52;12.68;;;;;;;;;;5073437;28;20016;-80
2022/03/05 00:59:19;;;;;;;31.13;12.73;;;;;;;;;;5073507;28;20021;-81
2022/03/05 01:01:45;;;;;;;34.20;13.25;;;;;;;;;;5073412;28;20025;-80
2022/03/05 01:04:12;;;;;;;31.85;12.77;;;;;;;;;;5073703;28;20358;-80
2022/03/05 01:06:38;;;;;;;30.15;13.35;;;;;;;;;;5073410;28;20345;-80
2022/03/05 01:09:05;;;;;;;28.00;12.35;;;;;;;;;;5073429;28;20032;-80
2022/03/05 01:11:31;;;;;;;34.85;13.07;;;;;;;;;;5073346;28;20044;-80
2022/03/05 01:13:57;;;;;;;30.67;12.88;;;;;;;;;;5071937;28;20426;-80
2022/03/05 01:16:23;;;;;;;31.38;11.82;;;;;;;;;;5073321;28;20031;-80
2022/03/05 01:18:49;;;;;;;28.65;12.13;;;;;;;;;;5073346;28;20040;-80
2022/03/05 01:21:16;;;;;;;30.63;13.15;;;;;;;;;;5073282;28;20032;-80
2022/03/05 01:23:42;;;;;;;32.08;12.60;;;;;;;;;;5088914;28;20097;-80
2022/03/05 01:26:08;;;;;;;28.05;12.75;;;;;;;;;;5093475;28;20038;-80
2022/03/05 01:28:34;;;;;;;33.40;13.13;;;;;;;;;;5092896;28;20028;-80
2022/03/05 01:31:00;;;;;;;37.30;13.25;;;;;;;;;;5093139;28;20051;-80
2022/03/05 01:33:27;;;;;;;32.72;12.63;;;;;;;;;;5093017;28;20059;-80
2022/03/05 01:35:53;;;;;;;33.67;13.48;;;;;;;;;;5092973;28;20428;-80
2022/03/05 01:38:19;;;;;;;34.42;13.73;;;;;;;;;;5092978;28;20363;-80
2022/03/05 01:40:45;;;;;;;37.00;13.52;;;;;;;;;;5093410;28;20016;-80
2022/03/05 01:43:11;;;;;;;31.80;12.93;;;;;;;;;;5092083;28;20466;-80
2022/03/05 01:45:38;;;;;;;31.45;13.00;;;;;;;;;;5092998;28;20032;-79
2022/03/05 01:48:05;;;;;;;34.58;13.25;;;;;;;;;;5076442;28;20449;-80
2022/03/05 01:50:31;;;;;;;36.03;14.10;;;;;;;;;;5072897;28;20029;-81
2022/03/05 01:52:57;;;;;;;33.30;13.82;;;;;;;;;;5072324;28;20100;-79
2022/03/05 01:55:24;;;;;;;34.13;13.90;;;;;;;;;;5071830;28;20786;-80
2022/03/05 01:57:50;;;;;;;33.38;14.77;;;;;;;;;;5072147;28;20012;-82
2022/03/05 02:00:16;;;;;;;33.00;13.60;;;;;;;;;;5072379;28;20431;-79
2022/03/05 02:02:43;;;;;;;33.78;14.57;;;;;;;;;;5070838;28;20078;-79
2022/03/05 02:05:09;;;;;;;33.22;14.15;;;;;;;;;;5072413;28;20100;-79
2022/03/05 02:07:35;;;;;;;34.80;13.10;;;;;;;;;;5072658;28;20047;-79
2022/03/05 02:10:01;;;;;;;37.35;14.70;;;;;;;;;;5072328;28;20085;-79
2022/03/05 02:12:31;;;;;;;31.30;13.75;;;;;;;;;;5072423;28;20028;-81
2022/03/05 02:14:58;;;;;;;35.85;13.80;;;;;;;;;;5072301;28;20798;-81
2022/03/05 02:17:24;;;;;;;44.22;15.70;;;;;;;;;;5071228;28;20020;-81
2022/03/05 02:19:50;;;;;;;37.92;14.90;;;;;;;;;;5072523;28;20069;-81
2022/03/05 02:22:16;;;;;;;36.25;14.15;;;;;;;;;;5080481;28;20027;-81
2022/03/05 02:24:42;;;;;;;38.33;15.82;;;;;;;;;;5090843;28;20025;-81
2022/03/05 02:27:10;;;;;;;42.75;15.77;;;;;;;;;;5092425;28;20035;-81
2022/03/05 02:29:37;;;;;;;36.58;13.75;;;;;;;;;;5092424;28;20497;-81
2022/03/05 02:32:03;;;;;;;37.80;15.82;;;;;;;;;;5092434;28;20111;-81
2022/03/05 02:34:30;;;;;;;43.97;16.27;;;;;;;;;;5092516;28;20020;-81
2022/03/05 02:36:56;;;;;;;41.03;15.98;;;;;;;;;;5092868;28;20107;-82
2022/03/05 02:39:25;;;;;;;39.10;15.38;;;;;;;;;;5092414;28;20028;-82
2022/03/05 02:41:52;;;;;;;42.42;15.60;;;;;;;;;;5092497;28;20116;-81
2022/03/05 02:44:19;;;;;;;42.30;15.27;;;;;;;;;;5091241;28;20482;-81
2022/03/05 02:46:45;;;;;;;37.08;15.18;;;;;;;;;;5086626;28;20041;-81
2022/03/05 02:49:11;;;;;;;40.22;14.85;;;;;;;;;;5072346;28;20090;-81
2022/03/05 02:51:38;;;;;;;39.05;14.30;;;;;;;;;;5072186;28;20021;-81
2022/03/05 02:54:05;;;;;;;39.97;15.32;;;;;;;;;;5073171;28;20349;-81
2022/03/05 02:56:31;;;;;;;42.88;15.52;;;;;;;;;;5075807;28;20446;-81
2022/03/05 02:58:57;;;;;;;39.65;15.55;;;;;;;;;;5076074;28;20528;-81
2022/03/05 03:01:24;;;;;;;44.00;15.98;;;;;;;;;;5075664;28;20119;-81
2022/03/05 03:03:50;;;;;;;45.85;15.82;;;;;;;;;;5075987;28;20039;-81
2022/03/05 03:06:16;;;;;;;39.47;15.07;;;;;;;;;;5075812;28;20036;-80
2022/03/05 03:08:42;;;;;;;47.50;16.88;;;;;;;;;;5075522;28;20028;-81
2022/03/05 03:11:08;;;;;;;46.90;17.25;;;;;;;;;;5075809;28;20070;-81
2022/03/05 03:13:34;;;;;;;44.65;16.27;;;;;;;;;;5075689;28;20024;-81
2022/03/05 03:16:00;;;;;;;42.47;16.38;;;;;;;;;;5075570;28;20025;-81
2022/03/05 03:18:26;;;;;;;44.97;17.45;;;;;;;;;;5075690;28;20102;-81
2022/03/05 03:20:52;;;;;;;43.20;16.02;;;;;;;;;;5075543;28;20048;-81
2022/03/05 03:23:18;;;;;;;42.08;15.73;;;;;;;;;;5075638;28;20374;-81
2022/03/05 03:25:44;;;;;;;45.35;17.58;;;;;;;;;;5076113;28;20107;-81
2022/03/05 03:28:10;;;;;;;47.75;16.52;;;;;;;;;;5075495;28;20039;-81
2022/03/05 03:30:36;;;;;;;49.85;17.95;;;;;;;;;;5075430;28;20463;-81
2022/03/05 03:33:02;;;;;;;45.08;16.85;;;;;;;;;;5075468;28;20029;-81
2022/03/05 03:35:28;;;;;;;46.05;16.17;;;;;;;;;;5075466;28;20032;-81
2022/03/05 03:37:54;;;;;;;50.58;17.20;;;;;;;;;;5075513;28;20017;-82
2022/03/05 03:40:21;;;;;;;44.17;16.98;;;;;;;;;;5075566;28;20169;-80
2022/03/05 03:42:48;;;;;;;44.78;17.63;;;;;;;;;;5075388;28;20025;-81
2022/03/05 03:45:14;;;;;;;44.58;17.10;;;;;;;;;;5075374;28;20025;-81
2022/03/05 03:47:42;;;;;;;45.53;16.67;;;;;;;;;;5087864;28;20043;-81
2022/03/05 03:50:08;;;;;;;47.22;16.42;;;;;;;;;;5095100;28;20032;-81
2022/03/05 03:52:34;;;;;;;50.03;19.02;;;;;;;;;;5095391;28;20024;-81
2022/03/05 03:55:00;;;;;;;45.17;16.88;;;;;;;;;;5095452;28;20020;-81
2022/03/05 03:57:26;;;;;;;50.53;17.75;;;;;;;;;;5095426;28;20119;-81
2022/03/05 03:59:52;;;;;;;53.13;17.80;;;;;;;;;;5095322;28;20447;-81
2022/03/05 04:02:19;;;;;;;49.20;16.80;;;;;;;;;;5095725;28;20028;-81
2022/03/05 04:04:46;;;;;;;47.53;18.17;;;;;;;;;;5095085;28;20054;-81
2022/03/05 04:09:57;;;;;;;46.28;17.58;;;;;;;;;;5095228;28;20144;-81
2022/03/05 04:12:23;;;;;;;47.80;17.25;;;;;;;;;;5093890;28;20760;-81
2022/03/05 04:14:49;;;;;;;44.70;17.00;;;;;;;;;;5095352;28;20016;-81
2022/03/05 04:17:15;;;;;;;50.15;18.27;;;;;;;;;;5093399;28;20386;-81
2022/03/05 04:19:41;;;;;;;48.97;17.50;;;;;;;;;;5094831;28;20114;-82
2022/03/05 04:22:08;;;;;;;52.63;17.48;;;;;;;;;;5087990;28;20501;-82
2022/03/05 04:24:34;;;;;;;39.67;16.23;;;;;;;;;;5074731;28;20055;-81
2022/03/05 04:27:00;;;;;;;48.00;17.73;;;;;;;;;;5074924;28;20472;-82
2022/03/05 04:29:26;;;;;;;45.70;16.95;;;;;;;;;;5074809;28;20065;-81
2022/03/05 04:31:52;;;;;;;46.67;17.83;;;;;;;;;;5074440;28;20454;-82
2022/03/05 04:34:18;;;;;;;48.58;16.83;;;;;;;;;;5074758;28;20027;-81
2022/03/05 04:36:44;;;;;;;50.95;17.73;;;;;;;;;;5074385;28;20016;-82
2022/03/05 04:39:10;;;;;;;50.38;17.45;;;;;;;;;;5074663;28;20024;-82
2022/03/05 04:41:36;;;;;;;49.42;17.40;;;;;;;;;;5074490;28;20033;-82
2022/03/05 04:44:02;;;;;;;46.95;17.77;;;;;;;;;;5074227;28;20033;-81
2022/03/05 04:46:28;;;;;;;52.33;17.55;;;;;;;;;;5077030;28;20036;-81
2022/03/05 04:48:54;;;;;;;54.40;18.15;;;;;;;;;;5094480;28;20119;-81
2022/03/05 04:51:20;;;;;;;52.42;17.17;;;;;;;;;;5094428;28;20143;-81
2022/03/05 04:53:46;;;;;;;48.20;17.63;;;;;;;;;;5093181;28;20374;-81
2022/03/05 04:56:12;;;;;;;50.95;17.70;;;;;;;;;;5092636;28;20032;-81
2022/03/05 04:58:38;;;;;;;51.97;17.10;;;;;;;;;;5094043;28;20023;-81
2022/03/05 05:01:06;;;;;;;47.80;17.00;;;;;;;;;;5094230;28;20024;-82
2022/03/05 05:03:33;;;;;;;47.22;17.58;;;;;;;;;;5093956;28;20023;-81
2022/03/05 05:05:59;;;;;;;52.45;17.70;;;;;;;;;;5094166;28;20020;-81
2022/03/05 05:08:25;;;;;;;47.22;18.23;;;;;;;;;;5094360;28;20528;-81
2022/03/05 05:10:51;;;;;;;54.83;18.58;;;;;;;;;;5094153;28;20103;-82
2022/03/05 05:13:17;;;;;;;50.78;18.10;;;;;;;;;;5093231;28;20031;-82
2022/03/05 05:15:45;;;;;;;46.88;17.13;;;;;;;;;;5092223;28;20099;-81
2022/03/05 05:18:11;;;;;;;50.60;17.70;;;;;;;;;;5092230;28;20078;-82
2022/03/05 05:20:37;;;;;;;50.22;17.85;;;;;;;;;;5092171;28;20075;-82
2022/03/05 05:23:03;;;;;;;53.13;17.02;;;;;;;;;;5090598;28;20028;-81
2022/03/05 05:25:29;;;;;;;48.67;17.65;;;;;;;;;;5092081;28;20020;-82
2022/03/05 05:27:56;;;;;;;52.83;19.00;;;;;;;;;;5092173;28;20023;-81
2022/03/05 05:30:22;;;;;;;49.97;17.70;;;;;;;;;;5092012;28;20024;-82
2022/03/05 05:32:48;;;;;;;51.83;18.60;;;;;;;;;;5091985;28;20019;-81
2022/03/05 05:35:14;;;;;;;50.70;17.58;;;;;;;;;;5091372;28;20520;-81
2022/03/05 05:37:40;;;;;;;52.63;17.60;;;;;;;;;;5093702;28;20032;-81
2022/03/05 05:40:07;;;;;;;57.88;18.23;;;;;;;;;;5093453;28;20028;-82
2022/03/05 05:42:33;;;;;;;50.88;17.90;;;;;;;;;;5093170;28;20470;-81
2022/03/05 05:44:59;;;;;;;48.03;17.52;;;;;;;;;;5093134;28;20027;-81
2022/03/05 05:47:25;;;;;;;51.05;17.63;;;;;;;;;;5082067;28;20379;-81
2022/03/05 05:49:51;;;;;;;53.88;17.30;;;;;;;;;;5071533;28;20043;-82
2022/03/05 05:52:18;;;;;;;52.03;17.58;;;;;;;;;;5073222;28;20016;-81
2022/03/05 05:54:44;;;;;;;52.80;17.58;;;;;;;;;;5072639;28;20060;-82
2022/03/05 05:57:10;;;;;;;46.95;16.98;;;;;;;;;;5072842;28;20490;-81
2022/03/05 05:59:36;;;;;;;57.30;17.75;;;;;;;;;;5072184;28;20489;-81
2022/03/05 06:02:02;;;;;;;50.92;17.05;;;;;;;;;;5070335;28;20067;-82
2022/03/05 06:04:29;;;;;;;58.50;18.83;;;;;;;;;;5071780;28;20055;-82
2022/03/05 06:06:55;;;;;;;57.13;17.83;;;;;;;;;;5072518;28;20025;-81
2022/03/05 06:09:21;;;;;;;51.15;18.27;;;;;;;;;;5072674;28;20027;-81
2022/03/05 06:11:47;;;;;;;49.45;16.92;;;;;;;;;;5071437;28;20074;-81
2022/03/05 06:14:13;;;;;;;47.58;16.48;;;;;;;;;;5072752;28;20016;-81
2022/03/05 06:16:40;;;;;;;56.15;18.25;;;;;;;;;;5072758;28;20025;-81
2022/03/05 06:19:08;;;;;;;51.35;18.42;;;;;;;;;;5075543;28;20367;-81
2022/03/05 06:21:34;;;;;;;45.85;16.88;;;;;;;;;;5090827;28;20034;-81
2022/03/05 06:24:00;;;;;;;49.50;17.55;;;;;;;;;;5072562;28;20024;-81
2022/03/05 06:26:28;;;;;;;56.40;19.45;;;;;;;;;;5072764;28;20085;-81
2022/03/05 06:28:54;;;;;;;49.08;18.05;;;;;;;;;;5072476;28;20454;-81
2022/03/05 06:31:20;;;;;;;48.05;17.25;;;;;;;;;;5077027;28;20050;-81
2022/03/05 06:33:46;;;;;;;52.28;17.13;;;;;;;;;;5076766;28;20439;-81
2022/03/05 06:36:13;;;;;;;56.60;18.92;;;;;;;;;;5076516;28;20035;-81
2022/03/05 06:38:39;;;;;;;49.28;17.33;;;;;;;;;;5094510;28;20017;-81
2022/03/05 06:41:05;;;;;;;49.53;18.65;;;;;;;;;;5096930;28;20024;-81
2022/03/05 06:43:31;;;;;;;53.20;18.42;;;;;;;;;;5096776;28;20027;-81
2022/03/05 06:45:57;;;;;;;56.63;18.58;;;;;;;;;;5096968;28;20024;-81
2022/03/05 06:48:23;;;;;;;50.50;17.38;;;;;;;;;;5077539;28;20021;-81
2022/03/05 06:50:49;;;;;;;52.10;17.90;;;;;;;;;;5076278;28;20028;-81
2022/03/05 06:53:15;;;;;;;49.95;16.77;;;;;;;;;;5076180;28;20063;-81
2022/03/05 06:55:42;;;;;;;60.70;19.65;;;;;;;;;;5093123;28;20052;-82
2022/03/05 06:58:08;;;;;;;50.78;17.77;;;;;;;;;;5096551;28;20043;-81
2022/03/05 07:00:34;;;;;;;52.35;17.95;;;;;;;;;;5096275;28;20489;-82
2022/03/05 07:03:00;;;;;;;55.72;18.95;;;;;;;;;;5096173;28;20424;-82
2022/03/05 07:05:26;;;;;;;55.00;18.08;;;;;;;;;;5096385;28;20367;-81
2022/03/05 07:07:52;;;;;;;49.42;17.27;;;;;;;;;;5096254;28;20024;-81
2022/03/05 07:10:18;;;;;;;56.45;18.92;;;;;;;;;;5096591;28;20353;-81
2022/03/05 07:12:45;;;;;;;52.85;18.45;;;;;;;;;;5096283;28;20506;-81
2022/03/05 07:15:11;;;;;;;48.50;17.42;;;;;;;;;;5096265;28;20028;-81
2022/03/05 07:17:37;;;;;;;46.28;17.70;;;;;;;;;;5094769;28;20106;-81
2022/03/05 07:20:04;;;;;;;55.40;18.70;;;;;;;;;;5096186;28;20020;-81
2022/03/05 07:22:31;;;;;;;50.83;18.67;;;;;;;;;;5085837;28;20415;-81
2022/03/05 07:24:57;;;;;;;51.17;17.92;;;;;;;;;;5095774;28;20121;-81
2022/03/05 07:27:23;;;;;;;51.47;17.70;;;;;;;;;;5096112;28;20024;-82
2022/03/05 07:29:49;;;;;;;48.28;16.63;;;;;;;;;;5095876;28;20024;-82
2022/03/05 07:32:15;;;;;;;51.45;19.13;;;;;;;;;;5095986;28;20036;-81
2022/03/05 07:34:41;;;;;;;48.45;17.25;;;;;;;;;;5095830;28;20111;-82
2022/03/05 07:37:07;;;;;;;51.55;17.70;;;;;;;;;;5096049;28;20024;-81
2022/03/05 07:39:33;;;;;;;52.20;18.08;;;;;;;;;;5095704;28;20048;-81
2022/03/05 07:41:59;;;;;;;48.45;17.85;;;;;;;;;;5094581;28;20028;-81
2022/03/05 07:44:25;;;;;;;45.15;17.08;;;;;;;;;;5095485;28;20385;-81
2022/03/05 07:46:51;;;;;;;45.80;17.17;;;;;;;;;;5095351;28;20543;-81
2022/03/05 07:49:17;;;;;;;48.20;18.02;;;;;;;;;;5095449;28;20028;-81
2022/03/05 07:51:43;;;;;;;48.67;16.60;;;;;;;;;;5095389;28;20016;-81
2022/03/05 07:54:10;;;;;;;49.13;18.15;;;;;;;;;;5095228;28;20028;-82
2022/03/05 07:56:37;;;;;;;46.35;17.65;;;;;;;;;;5095544;28;20047;-82
2022/03/05 07:59:03;;;;;;;48.88;17.67;;;;;;;;;;5095199;28;20373;-82
2022/03/05 08:01:29;;;;;;;48.05;17.95;;;;;;;;;;5095527;28;20369;-82
2022/03/05 08:03:55;;;;;;;46.72;17.98;;;;;;;;;;5094814;28;20028;-81
2022/03/05 08:06:21;;;;;;;47.65;17.33;;;;;;;;;;5095052;28;20028;-82
2022/03/05 08:08:47;;;;;;;47.88;18.27;;;;;;;;;;5093595;28;20028;-82
2022/03/05 08:11:13;;;;;;;47.65;18.20;;;;;;;;;;5094984;28;20512;-81
2022/03/05 08:13:39;;;;;;;50.53;17.80;;;;;;;;;;5094825;28;20056;-81
2022/03/05 08:16:06;;;;;;;45.30;17.70;;;;;;;;;;5094708;28;20098;-81
2022/03/05 08:18:32;;;;;;;45.92;18.10;;;;;;;;;;5094543;28;20090;-81
2022/03/05 08:20:58;;;;;;;45.88;18.45;;;;;;;;;;5094365;28;20024;-81
2022/03/05 08:23:24;;;;;;;50.53;17.65;;;;;;;;;;5091543;28;20038;-81
2022/03/05 08:25:50;;;;;;;48.40;16.98;;;;;;;;;;5094630;28;20016;-81
2022/03/05 08:28:18;;;;;;;51.85;19.35;;;;;;;;;;5094127;28;20012;-81
2022/03/05 08:30:44;;;;;;;47.90;18.20;;;;;;;;;;5093978;28;20020;-81
2022/03/05 08:33:10;;;;;;;44.88;17.88;;;;;;;;;;5094253;28;20070;-81
2022/03/05 08:35:36;;;;;;;48.20;17.63;;;;;;;;;;5094041;28;20016;-81
2022/03/05 08:38:02;;;;;;;48.15;18.17;;;;;;;;;;5092444;28;20424;-81
2022/03/05 08:40:28;;;;;;;51.92;19.38;;;;;;;;;;5093841;28;20027;-81
2022/03/05 08:42:54;;;;;;;49.42;17.15;;;;;;;;;;5093916;28;20039;-81
2022/03/05 08:45:20;;;;;;;45.55;17.60;;;;;;;;;;5093916;28;20016;-80
2022/03/05 08:47:46;;;;;;;47.20;17.88;;;;;;;;;;5090888;28;20435;-81
2022/03/05 08:50:13;;;;;;;44.00;18.23;;;;;;;;;;5093686;28;20032;-81
2022/03/05 08:52:39;;;;;;;42.45;17.30;;;;;;;;;;5093360;28;20052;-81
2022/03/05 08:55:09;;;;;;;43.55;18.25;;;;;;;;;;5093645;28;20020;-81
2022/03/05 08:57:36;;;;;;;44.88;17.70;;;;;;;;;;5092999;28;20019;-80
2022/03/05 09:00:02;;;;;;;42.03;17.60;;;;;;;;;;5092858;28;20036;-75
2022/03/05 09:02:29;;;;;;;46.63;18.13;;;;;;;;;;5093999;28;20025;-81
2022/03/05 09:04:55;;;;;;;45.92;17.20;;;;;;;;;;5093556;28;20016;-81
2022/03/05 09:07:21;;;;;;;44.75;17.63;;;;;;;;;;5094048;28;20020;-81
2022/03/05 09:09:47;;;;;;;48.60;18.08;;;;;;;;;;5094006;28;20032;-81
2022/03/05 09:12:13;;;;;;;43.17;17.52;;;;;;;;;;5092473;28;20026;-81
2022/03/05 09:14:39;;;;;;;43.47;18.63;;;;;;;;;;5093800;28;20099;-81
2022/03/05 09:17:05;;;;;;;46.67;17.67;;;;;;;;;;5093410;28;20107;-80
2022/03/05 09:19:31;;;;;;;48.53;17.27;;;;;;;;;;5093749;28;20518;-80
2022/03/05 09:21:57;;;;;;;44.33;17.77;;;;;;;;;;5093201;28;20055;-81
2022/03/05 09:24:23;;;;;;;46.83;16.52;;;;;;;;;;5093676;28;20063;-81
2022/03/05 09:26:49;;;;;;;43.60;17.70;;;;;;;;;;5093709;28;20052;-81
2022/03/05 09:29:16;;;;;;;47.92;17.90;;;;;;;;;;5093343;28;20028;-81
2022/03/05 09:31:42;;;;;;;42.30;16.85;;;;;;;;;;5093658;28;20028;-81
2022/03/05 09:34:08;;;;;;;44.60;18.50;;;;;;;;;;5092947;28;20069;-81
2022/03/05 09:36:34;;;;;;;45.35;18.40;;;;;;;;;;5093086;28;20028;-79
2022/03/05 09:39:00;;;;;;;46.03;18.70;;;;;;;;;;5092780;28;20024;-85
2022/03/05 09:41:26;;;;;;;44.65;18.25;;;;;;;;;;5093099;28;20028;-80
2022/03/05 09:43:52;;;;;;;45.45;18.42;;;;;;;;;;5093147;28;20027;-81
2022/03/05 09:46:20;;;;;;;44.03;18.20;;;;;;;;;;5092341;28;20051;-77
2022/03/05 09:48:46;;;;;;;48.83;18.23;;;;;;;;;;5072035;28;20119;-77
2022/03/05 09:51:12;;;;;;;44.70;18.08;;;;;;;;;;5071737;28;20029;-77
2022/03/05 09:53:39;;;;;;;46.53;18.15;;;;;;;;;;5071755;28;20031;-79
2022/03/05 09:56:05;;;;;;;47.72;18.85;;;;;;;;;;5071784;28;20111;-78
2022/03/05 09:58:31;;;;;;;46.97;18.38;;;;;;;;;;5071966;28;20024;-79
2022/03/05 10:00:57;;;;;;;43.22;18.33;;;;;;;;;;5071618;28;20363;-79
2022/03/05 10:03:23;;;;;;;47.30;19.23;;;;;;;;;;5071235;28;20024;-79
2022/03/05 10:05:49;;;;;;;42.30;17.73;;;;;;;;;;5071721;28;20025;-78
2022/03/05 10:08:16;;;;;;;42.92;18.55;;;;;;;;;;5071638;28;20051;-79
2022/03/05 10:10:52;;;;;;;47.03;19.42;;;;;;;;;;5071570;28;20025;-78
2022/03/05 10:13:29;;;;;;;44.65;18.55;;;;;;;;;;5071557;28;20379;-79
2022/03/05 10:15:58;;;;;;;43.90;19.23;;;;;;;;;;5070308;28;20360;-79
2022/03/05 10:18:32;;;;;;;46.83;18.67;;;;;;;;;;5075002;28;20446;-79
2022/03/05 10:20:59;;;;;;;46.22;19.13;;;;;;;;;;5091799;28;20032;-79
2022/03/05 10:23:25;;;;;;;41.78;17.58;;;;;;;;;;5091831;28;20355;-79
2022/03/05 10:25:55;;;;;;;47.05;18.73;;;;;;;;;;5091785;28;20031;-78
2022/03/05 10:28:28;;;;;;;46.25;19.50;;;;;;;;;;5091025;28;20058;-78
2022/03/05 10:30:58;;;;;;;42.65;18.30;;;;;;;;;;5091132;28;20068;-78
2022/03/05 10:33:30;;;;;;;42.20;18.42;;;;;;;;;;5092052;28;20028;-78
2022/03/05 10:35:57;;;;;;;44.00;18.17;;;;;;;;;;5092498;28;20115;-78
2022/03/05 10:38:25;;;;;;;44.25;18.67;;;;;;;;;;5091343;28;20123;-78
2022/03/05 10:40:57;;;;;;;43.67;18.88;;;;;;;;;;5092268;28;20020;-84
2022/03/05 10:43:24;;;;;;;40.65;18.42;;;;;;;;;;5091153;28;20024;-85
2022/03/05 10:45:51;;;;;;;46.92;18.92;;;;;;;;;;5092381;28;20107;-85
2022/03/05 10:48:34;;;;;;;40.47;18.70;;;;;;;;;;5077979;28;20043;-84
2022/03/05 10:51:02;;;;;;;44.50;18.88;;;;;;;;;;5092213;28;20112;-84
2022/03/05 10:53:37;;;;;;;48.40;19.83;;;;;;;;;;5091988;28;20073;-84
2022/03/05 10:56:22;;;;;;;46.80;18.25;;;;;;;;;;5092399;28;20074;-84
2022/03/05 10:59:00;;;;;;;43.33;18.30;;;;;;;;;;5092345;28;20114;-84
2022/03/05 11:01:26;;;;;;;44.85;19.27;;;;;;;;;;5092407;28;20077;-84
2022/03/05 11:03:53;;;;;;;40.20;18.00;;;;;;;;;;5092493;28;20020;-84
2022/03/05 11:06:22;;;;;;;42.58;19.75;;;;;;;;;;5092535;28;20016;-85
2022/03/05 11:08:49;;;;;;;46.25;20.27;;;;;;;;;;5092438;28;20477;-85
2022/03/05 11:11:15;;;;;;;40.10;18.42;;;;;;;;;;5092672;28;20024;-85
2022/03/05 11:13:42;;;;;;;42.13;19.02;;;;;;;;;;5092324;28;20024;-85
2022/03/05 11:16:09;;;;;;;37.40;18.10;;;;;;;;;;5095050;28;20435;-82
2022/03/05 11:18:36;;;;;;;40.60;18.80;;;;;;;;;;5095850;28;20466;-86
2022/03/05 11:21:02;;;;;;;43.33;18.85;;;;;;;;;;5095870;28;20020;-86
2022/03/05 11:23:29;;;;;;;42.47;19.17;;;;;;;;;;5095576;28;20024;-79
2022/03/05 11:25:55;;;;;;;39.75;18.23;;;;;;;;;;5095588;28;20020;-82
2022/03/05 11:28:25;;;;;;;38.67;17.77;;;;;;;;;;5095819;28;20028;-82
2022/03/05 11:30:55;;;;;;;42.83;18.55;;;;;;;;;;5095632;28;20024;-74
2022/03/05 11:33:34;;;;;;;41.22;18.42;;;;;;;;;;5093901;28;20032;-75
2022/03/05 11:36:07;;;;;;;42.83;19.20;;;;;;;;;;5094671;28;20032;-75
2022/03/05 11:38:39;;;;;;;41.40;18.77;;;;;;;;;;5094387;28;20055;-77
2022/03/05 11:41:06;;;;;;;43.80;19.48;;;;;;;;;;5094216;28;20463;-76
2022/03/05 11:43:41;;;;;;;42.05;19.13;;;;;;;;;;5094140;28;20024;-78
2022/03/05 11:46:07;;;;;;;38.72;17.52;;;;;;;;;;5093693;28;20027;-78
2022/03/05 11:48:36;;;;;;;40.78;18.50;;;;;;;;;;5093802;28;20032;-78
2022/03/05 11:51:08;;;;;;;39.60;18.45;;;;;;;;;;5093889;28;20035;-77
2022/03/05 11:53:34;;;;;;;39.78;18.92;;;;;;;;;;5090644;28;20058;-78
2022/03/05 11:56:20;;;;;;;35.42;18.95;;;;;;;;;;5093326;28;20048;-78
2022/03/05 11:58:46;;;;;;;37.28;17.67;;;;;;;;;;5093554;28;20012;-78
2022/03/05 12:01:32;;;;;;;38.17;17.50;;;;;;;;;;5090766;28;20086;-78
2022/03/05 12:04:03;;;;;;;42.90;18.63;;;;;;;;;;5091646;28;20142;-78
2022/03/05 12:06:35;;;;;;;38.85;19.25;;;;;;;;;;5093204;28;20523;-78
2022/03/05 12:09:01;;;;;;;39.00;18.40;;;;;;;;;;5091698;28;20103;-78
2022/03/05 12:11:27;;;;;;;40.13;19.40;;;;;;;;;;5093315;28;20308;-78
2022/03/05 12:13:54;;;;;;;40.50;18.67;;;;;;;;;;5093400;28;20032;-78
2022/03/05 12:16:28;;;;;;;41.80;19.73;;;;;;;;;;5090812;28;20667;-78
2022/03/05 12:18:56;;;;;;;39.03;18.73;;;;;;;;;;5093371;28;20024;-78
2022/03/05 12:21:26;;;;;;;38.58;18.38;;;;;;;;;;5092984;28;20043;-78
2022/03/05 12:23:57;;;;;;;37.47;17.45;;;;;;;;;;5072593;28;20024;-78
2022/03/05 12:26:29;;;;;;;39.08;17.85;;;;;;;;;;5072696;28;20029;-78
2022/03/05 12:28:55;;;;;;;40.65;19.95;;;;;;;;;;5072857;28;20020;-78
2022/03/05 12:31:21;;;;;;;39.05;18.48;;;;;;;;;;5072821;28;20029;-78
2022/03/05 12:33:48;;;;;;;36.88;18.20;;;;;;;;;;5073092;28;20032;-78
2022/03/05 12:36:15;;;;;;;38.70;19.30;;;;;;;;;;5072943;28;20029;-78
2022/03/05 12:38:41;;;;;;;38.95;18.60;;;;;;;;;;5073080;28;20027;-78
2022/03/05 12:41:09;;;;;;;35.55;17.55;;;;;;;;;;5072985;28;20553;-78
2022/03/05 12:43:35;;;;;;;40.72;18.83;;;;;;;;;;5073079;28;20051;-78
2022/03/05 12:46:01;;;;;;;37.03;18.17;;;;;;;;;;5072911;28;20025;-78
2022/03/05 12:48:27;;;;;;;36.13;17.70;;;;;;;;;;5074945;28;20047;-78
2022/03/05 12:50:54;;;;;;;36.70;18.58;;;;;;;;;;5072816;28;20036;-78
2022/03/05 12:53:20;;;;;;;37.15;18.30;;;;;;;;;;5072849;28;20029;-78
2022/03/05 12:55:55;;;;;;;37.97;18.27;;;;;;;;;;5072631;28;20078;-78
2022/03/05 12:58:23;;;;;;;38.08;19.33;;;;;;;;;;5072776;28;20027;-78
2022/03/05 13:00:50;;;;;;;39.03;19.48;;;;;;;;;;5072521;28;20068;-78
2022/03/05 13:03:17;;;;;;;39.22;19.25;;;;;;;;;;5072621;28;20028;-78
2022/03/05 13:05:44;;;;;;;36.70;18.67;;;;;;;;;;5072503;28;20036;-78
2022/03/05 13:08:18;;;;;;;37.22;18.70;;;;;;;;;;5072483;28;20032;-78
2022/03/05 13:10:44;;;;;;;37.63;19.20;;;;;;;;;;5072308;28;20032;-78
2022/03/05 13:13:13;;;;;;;36.83;18.95;;;;;;;;;;5072416;28;20059;-78
2022/03/05 13:15:39;;;;;;;43.72;18.92;;;;;;;;;;5072361;28;20021;-78
2022/03/05 13:18:06;;;;;;;37.83;20.08;;;;;;;;;;5072098;28;20044;-78
2022/03/05 13:20:32;;;;;;;38.00;19.65;;;;;;;;;;5072169;28;20039;-78
2022/03/05 13:22:58;;;;;;;38.55;19.00;;;;;;;;;;5086214;28;20020;-78
2022/03/05 13:25:26;;;;;;;37.15;19.00;;;;;;;;;;5092408;28;20024;-78
2022/03/05 13:27:52;;;;;;;37.88;18.20;;;;;;;;;;5092334;28;20020;-78
2022/03/05 13:30:19;;;;;;;36.80;18.98;;;;;;;;;;5092425;28;20036;-78
2022/03/05 13:32:47;;;;;;;43.15;18.88;;;;;;;;;;5092477;28;20019;-78
2022/03/05 13:35:13;;;;;;;36.97;18.92;;;;;;;;;;5092386;28;20036;-78
2022/03/05 13:37:39;;;;;;;38.53;18.33;;;;;;;;;;5092250;28;20028;-78
2022/03/05 13:40:08;;;;;;;41.40;18.85;;;;;;;;;;5091611;28;20470;-78
2022/03/05 13:42:34;;;;;;;37.30;20.13;;;;;;;;;;5090806;28;20119;-78
2022/03/05 13:45:01;;;;;;;35.53;19.15;;;;;;;;;;5092016;28;20055;-78
2022/03/05 13:47:28;;;;;;;35.85;18.42;;;;;;;;;;5087912;28;20040;-78
2022/03/05 13:49:59;;;;;;;38.00;18.70;;;;;;;;;;5092396;28;20047;-78
2022/03/05 13:52:26;;;;;;;37.33;19.70;;;;;;;;;;5092261;28;20032;-78
2022/03/05 13:54:52;;;;;;;39.22;18.85;;;;;;;;;;5091957;28;20016;-78
2022/03/05 13:57:28;;;;;;;35.33;19.33;;;;;;;;;;5092111;28;20028;-78
2022/03/05 13:59:54;;;;;;;37.33;18.67;;;;;;;;;;5091810;28;20024;-78
2022/03/05 14:02:20;;;;;;;35.67;18.95;;;;;;;;;;5091982;28;20024;-78
2022/03/05 14:04:55;;;;;;;35.35;19.30;;;;;;;;;;5091841;28;20115;-78
2022/03/05 14:07:21;;;;;;;34.70;18.65;;;;;;;;;;5092064;28;20462;-78
2022/03/05 14:09:47;;;;;;;36.60;19.77;;;;;;;;;;5091880;28;20032;-78
2022/03/05 14:12:20;;;;;;;37.97;19.55;;;;;;;;;;5091910;28;20110;-78
2022/03/05 14:14:48;;;;;;;33.20;18.90;;;;;;;;;;5090372;28;20088;-78
2022/03/05 14:17:26;;;;;;;34.13;20.35;;;;;;;;;;5091927;28;20063;-78